Flood From: 18-02-2018 16:00 Until: 19-02-2018 16:00 warning for: Flood Level: Yellow info button

Although rather usual in this region, locally or potentially dangerous phenomena are expected. (such as local winds, summer thunderstorms, rising streams or high waves) Be aware and pay attention to the latest weather updates, especially if you carry out activities exposed to weather or close to a stream or shoreline. 


Meteo18 Weather Cam more information Meteo18 Weather Cam


Thunder radar more information blitzortung!


Rain radar more information rain snow radar


Visit our other weather sites:

Template documentation
and downloads

And another site



Weather Underground History page Text

Daily Summary for June 5, 2017 Units:  English    Metric   Both
« Previous Day
Next Day »
Daily Weekly Monthly Yearly Custom
  High: Low: Average:
Temperature: TemperatureC °F 10.8 °F 16.8 °F
Dew Point: DewpointC °F 9.6 °F 10.9 °F
Humidity: Humidity % 46 % 70 %
Wind Speed: WindSpeedKMH mph 0.0 mph 4.3 mph
Wind Gust: WindSpeedGustKMH mph - -
Wind:- - SW
Pressure: PressurehPa in 1008.7 in -
Precipitation: 0.0 in    
Historical Graphs
 
 
Tabular Data for June 5, 2017
Time Temperature Dew Point Pressure Wind Wind Speed Wind Gust Humidity Rainfall Rate (Hourly)
TemperatureC °F DewpointC °F PressurehPa in Calm     Humidity % HourlyPrecipMM in
00:02 12.1 °F 10.3 °F 1018.5 in Calm     89 % 0.0 in
00:07 12.2 °F 10.3 °F 1018.5 in Calm     88 % 0.0 in
00:12 12.1 °F 10.2 °F 1018.5 in Calm     88 % 0.0 in
00:17 12.1 °F 10.2 °F 1018.5 in Calm     88 % 0.0 in
00:22 11.8 °F 10.0 °F 1018.5 in Calm     89 % 0.0 in
00:32 11.6 °F 10.0 °F 1018.5 in Calm     90 % 0.0 in
00:42 11.6 °F 10.2 °F 1018.5 in Calm     91 % 0.0 in
00:47 11.6 °F 10.2 °F 1018.5 in Calm     91 % 0.0 in
00:52 11.4 °F 10.0 °F 1018.5 in Calm     91 % 0.0 in
00:57 11.3 °F 9.9 °F 1018.5 in Calm     91 % 0.0 in
01:02 11.3 °F 9.9 °F 1018.5 in Calm     91 % 0.0 in
01:07 11.2 °F 9.8 °F 1018.5 in Calm     91 % 0.0 in
01:12 11.2 °F 9.9 °F 1018.5 in Calm     92 % 0.0 in
01:17 11.3 °F 10.0 °F 1018.5 in Calm     92 % 0.0 in
01:22 11.4 °F 10.1 °F 1018.5 in Calm     92 % 0.0 in
01:27 11.4 °F 10.0 °F 1018.5 in Calm     91 % 0.0 in
01:32 11.4 °F 10.1 °F 1018.5 in Calm     92 % 0.0 in
01:37 11.4 °F 10.1 °F 1018.5 in Calm     92 % 0.0 in
01:42 11.4 °F 10.1 °F 1018.5 in Calm     92 % 0.0 in
01:47 11.5 °F 10.1 °F 1018.5 in Calm     91 % 0.0 in
01:52 11.6 °F 10.2 °F 1018.5 in Calm     91 % 0.0 in
02:02 11.6 °F 10.2 °F 1018.5 in Calm     91 % 0.0 in
02:12 11.7 °F 10.3 °F 1018.2 in Calm     91 % 0.0 in
02:17 11.7 °F 10.3 °F 1018.2 in Calm     91 % 0.0 in
02:22 11.8 °F 10.4 °F 1018.2 in Calm     91 % 0.0 in
02:32 11.6 °F 10.2 °F 1018.2 in Calm     91 % 0.0 in
02:37 11.6 °F 10.2 °F 1018.2 in Calm     91 % 0.0 in
02:42 11.7 °F 10.3 °F 1018.2 in Calm     91 % 0.0 in
02:47 11.7 °F 10.3 °F 1018.2 in Calm     91 % 0.0 in
02:52 11.7 °F 10.3 °F 1018.2 in Calm     91 % 0.0 in
02:57 11.7 °F 10.3 °F 1018.2 in Calm     91 % 0.0 in
03:02 11.6 °F 10.2 °F 1017.8 in Calm     91 % 0.0 in
03:07 11.6 °F 10.2 °F 1018.2 in Calm     91 % 0.0 in
03:12 11.6 °F 10.2 °F 1018.2 in Calm     91 % 0.0 in
03:17 11.5 °F 10.1 °F 1017.8 in Calm     91 % 0.0 in
03:22 11.4 °F 10.1 °F 1017.8 in Calm     92 % 0.0 in
03:32 11.3 °F 10.0 °F 1017.8 in Calm     92 % 0.0 in
03:42 11.2 °F 9.9 °F 1017.8 in Calm     92 % 0.0 in
03:47 11.1 °F 9.8 °F 1017.8 in Calm     92 % 0.0 in
03:52 11.0 °F 9.8 °F 1017.8 in Calm     92 % 0.0 in
03:57 11.0 °F 9.8 °F 1017.8 in Calm     92 % 0.0 in
04:02 10.9 °F 9.7 °F 1017.8 in Calm     92 % 0.0 in
04:07 10.9 °F 9.8 °F 1017.8 in Calm     93 % 0.0 in
04:12 10.8 °F 9.7 °F 1017.8 in Calm     93 % 0.0 in
04:17 10.9 °F 9.8 °F 1017.8 in Calm     93 % 0.0 in
04:22 10.9 °F 9.8 °F 1017.8 in Calm     93 % 0.0 in
04:27 10.9 °F 9.7 °F 1017.5 in Calm     92 % 0.0 in
04:32 10.9 °F 9.7 °F 1017.5 in Calm     92 % 0.0 in
04:37 10.8 °F 9.6 °F 1017.5 in Calm     92 % 0.0 in
04:42 10.8 °F 9.7 °F 1017.8 in Calm     93 % 0.0 in
04:47 10.8 °F 9.7 °F 1017.8 in Calm     93 % 0.0 in
04:52 10.8 °F 9.7 °F 1017.5 in Calm     93 % 0.0 in
04:57 10.8 °F 9.7 °F 1017.5 in Calm     93 % 0.0 in
05:02 10.8 °F 9.7 °F 1017.5 in Calm     93 % 0.0 in
05:12 10.8 °F 9.7 °F 1017.5 in Calm     93 % 0.0 in
05:17 10.8 °F 9.7 °F 1017.5 in Calm     93 % 0.0 in
05:22 10.8 °F 9.7 °F 1017.5 in Calm     93 % 0.0 in
05:32 10.9 °F 9.8 °F 1017.5 in Calm     93 % 0.0 in
05:42 10.9 °F 9.8 °F 1017.5 in Calm     93 % 0.0 in
05:52 11.1 °F 9.8 °F 1017.5 in Calm     92 % 0.0 in
05:57 11.0 °F 9.8 °F 1017.5 in Calm     92 % 0.0 in
06:02 11.0 °F 9.8 °F 1017.5 in Calm     92 % 0.0 in
06:12 10.9 °F 9.7 °F 1017.5 in Calm     92 % 0.0 in
06:17 10.9 °F 9.8 °F 1017.5 in Calm     93 % 0.0 in
06:22 10.8 °F 9.7 °F 1017.5 in Calm     93 % 0.0 in
06:32 10.8 °F 9.7 °F 1017.8 in Calm     93 % 0.0 in
06:42 10.8 °F 9.7 °F 1017.8 in Calm     93 % 0.0 in
06:47 10.9 °F 10.0 °F 1017.8 in Calm     94 % 0.0 in
06:52 10.9 °F 10.0 °F 1017.8 in Calm     94 % 0.0 in
07:02 11.0 °F 10.1 °F 1017.8 in Calm     94 % 0.0 in
07:07 11.1 °F 10.2 °F 1017.8 in Calm     94 % 0.0 in
07:12 11.1 °F 10.2 °F 1017.8 in Calm     94 % 0.0 in
07:17 11.1 °F 10.2 °F 1017.8 in Calm     94 % 0.0 in
07:22 11.3 °F 10.4 °F 1017.8 in Calm     94 % 0.0 in
07:32 11.7 °F 10.8 °F 1017.8 in Calm     94 % 0.0 in
07:42 12.4 °F 11.5 °F 1017.8 in Calm     94 % 0.0 in
07:47 12.7 °F 11.6 °F 1017.8 in Calm     93 % 0.0 in
07:52 12.8 °F 11.5 °F 1017.8 in Calm     92 % 0.0 in
07:57 12.9 °F 11.5 °F 1017.8 in Calm     91 % 0.0 in
08:02 13.1 °F 11.7 °F 1017.8 in Calm     91 % 0.0 in
08:12 13.9 °F 11.9 °F 1017.8 in Calm     88 % 0.0 in
08:17 14.1 °F 11.6 °F 1017.8 in Calm     85 % 0.0 in
08:22 14.4 °F 11.5 °F 1017.8 in Calm     83 % 0.0 in
08:32 16.3 °F 12.8 °F 1017.8 in Calm     80 % 0.0 in
08:37 16.7 °F 12.2 °F 1017.8 in Calm     75 % 0.0 in
08:42 16.7 °F 12.4 °F 1017.8 in Calm     76 % 0.0 in
08:47 16.6 °F 12.4 °F 1017.8 in Calm   1.6 mph 76 % 0.0 in
08:52 16.6 °F 12.1 °F 1017.8 in Calm   1.6 mph 75 % 0.0 in
09:02 16.3 °F 11.7 °F 1017.5 in SW 6.4 mph 8.0 mph 74 % 0.0 in
09:12 16.4 °F 11.8 °F 1017.5 in South 1.6 mph 8.0 mph 74 % 0.0 in
09:17 16.7 °F 12.0 °F 1017.5 in SSW 1.6 mph 8.0 mph 74 % 0.0 in
09:22 16.9 °F 11.8 °F 1017.5 in SSE 1.6 mph 6.4 mph 72 % 0.0 in
09:27 17.1 °F 11.8 °F 1017.5 in SW 4.8 mph 6.4 mph 71 % 0.0 in
09:32 17.3 °F 11.6 °F 1017.5 in SSW 9.7 mph 9.7 mph 69 % 0.0 in
09:37 17.2 °F 11.5 °F 1017.5 in South 1.6 mph 11.3 mph 69 % 0.0 in
09:42 17.5 °F 11.7 °F 1017.5 in WSW 6.4 mph 11.3 mph 69 % 0.0 in
09:47 17.7 °F 11.9 °F 1017.5 in SSW 4.8 mph 11.3 mph 69 % 0.0 in
09:52 17.9 °F 11.7 °F 1017.2 in SW 3.2 mph 9.7 mph 67 % 0.0 in
09:57 17.9 °F 11.9 °F 1017.2 in SSW 6.4 mph 11.3 mph 68 % 0.0 in
10:02 18.0 °F 12.2 °F 1017.2 in ENE 4.8 mph 11.3 mph 69 % 0.0 in
10:12 18.3 °F 11.8 °F 1017.2 in Calm   9.7 mph 66 % 0.0 in
10:17 18.4 °F 12.2 °F 1017.2 in SSW 3.2 mph 9.7 mph 67 % 0.0 in
10:22 18.6 °F 12.1 °F 1017.2 in SW 3.2 mph 9.7 mph 66 % 0.0 in
10:27 18.7 °F 12.2 °F 1017.2 in Calm   8.0 mph 66 % 0.0 in
10:32 18.8 °F 11.1 °F 1017.2 in SSW 12.9 mph 12.9 mph 61 % 0.0 in
10:37 18.7 °F 11.0 °F 1017.2 in SSW 3.2 mph 14.5 mph 61 % 0.0 in
10:42 18.8 °F 11.1 °F 1016.8 in SSW 4.8 mph 14.5 mph 61 % 0.0 in
10:47 19.2 °F 11.7 °F 1016.8 in SSW 9.7 mph 14.5 mph 62 % 0.0 in
10:52 19.1 °F 11.2 °F 1016.8 in WSW 3.2 mph 12.9 mph 60 % 0.0 in
10:57 19.4 °F 11.7 °F 1016.5 in SW 8.0 mph 11.3 mph 61 % 0.0 in
11:02 19.4 °F 11.7 °F 1016.5 in SSW 1.6 mph 14.5 mph 61 % 0.0 in
11:12 19.6 °F 10.8 °F 1016.5 in SW 9.7 mph 14.5 mph 57 % 0.0 in
11:17 19.6 °F 10.6 °F 1016.5 in SSW 9.7 mph 16.1 mph 56 % 0.0 in
11:22 19.7 °F 10.4 °F 1016.5 in SSW 11.3 mph 16.1 mph 55 % 0.0 in
11:27 19.7 °F 10.1 °F 1016.5 in SSW 8.0 mph 16.1 mph 54 % 0.0 in
11:32 19.9 °F 11.1 °F 1016.1 in South 4.8 mph 14.5 mph 57 % 0.0 in
11:37 20.3 °F 11.8 °F 1016.1 in South 4.8 mph 14.5 mph 58 % 0.0 in
11:42 20.2 °F 10.9 °F 1016.5 in SW 8.0 mph 11.3 mph 55 % 0.0 in
11:47 19.9 °F 10.9 °F 1016.5 in WSW 4.8 mph 12.9 mph 56 % 0.0 in
11:52 19.8 °F 10.8 °F 1016.5 in SW 6.4 mph 14.5 mph 56 % 0.0 in
11:57 20.0 °F 11.5 °F 1016.5 in South 4.8 mph 14.5 mph 58 % 0.0 in
12:02 20.3 °F 11.5 °F 1016.1 in WSW 11.3 mph 19.3 mph 57 % 0.0 in
12:07 20.3 °F 10.7 °F 1016.1 in SW 4.8 mph 19.3 mph 54 % 0.0 in
12:12 20.4 °F 11.1 °F 1016.1 in SSW 8.0 mph 19.3 mph 55 % 0.0 in
12:17 20.7 °F 11.3 °F 1016.1 in WSW 9.7 mph 16.1 mph 55 % 0.0 in
12:22 20.7 °F 11.3 °F 1016.1 in West 1.6 mph 16.1 mph 55 % 0.0 in
12:27 20.2 °F 10.3 °F 1016.1 in SW 8.0 mph 12.9 mph 53 % 0.0 in
12:32 20.2 °F 10.0 °F 1016.1 in NW 1.6 mph 12.9 mph 52 % 0.0 in
12:42 19.9 °F 10.6 °F 1016.1 in SSW 12.9 mph 12.9 mph 55 % 0.0 in
12:47 20.2 °F 10.3 °F 1016.1 in SW 9.7 mph 12.9 mph 53 % 0.0 in
12:52 20.3 °F 10.7 °F 1016.1 in SW 9.7 mph 12.9 mph 54 % 0.0 in
12:57 20.1 °F 9.6 °F 1016.1 in WSW 8.0 mph 16.1 mph 51 % 0.0 in
13:02 19.9 °F 10.3 °F 1015.8 in SW 8.0 mph 16.1 mph 54 % 0.0 in
13:07 19.9 °F 11.1 °F 1015.8 in WSW 4.8 mph 14.5 mph 57 % 0.0 in
13:12 19.8 °F 11.6 °F 1015.8 in SW 8.0 mph 14.5 mph 59 % 0.0 in
13:17 20.0 °F 11.7 °F 1015.8 in SW 4.8 mph 12.9 mph 59 % 0.0 in
13:22 20.3 °F 11.5 °F 1015.8 in South 8.0 mph 12.9 mph 57 % 0.0 in
13:27 20.7 °F 10.5 °F 1015.8 in WSW 9.7 mph 12.9 mph 52 % 0.0 in
13:32 20.9 °F 11.0 °F 1015.8 in SSW 12.9 mph 12.9 mph 53 % 0.0 in
13:37 20.8 °F 10.9 °F 1015.8 in SSW 11.3 mph 17.7 mph 53 % 0.0 in
13:42 20.6 °F 10.4 °F 1015.5 in SW 3.2 mph 17.7 mph 52 % 0.0 in
13:47 20.5 °F 10.6 °F 1015.5 in SSW 11.3 mph 17.7 mph 53 % 0.0 in
13:52 20.3 °F 10.7 °F 1015.5 in SSW 4.8 mph 14.5 mph 54 % 0.0 in
13:57 20.4 °F 11.1 °F 1015.5 in SSW 1.6 mph 14.5 mph 55 % 0.0 in
14:02 20.6 °F 11.5 °F 1015.1 in SW 1.6 mph 14.5 mph 56 % 0.0 in
14:07 20.5 °F 10.6 °F 1015.1 in NW 4.8 mph 11.3 mph 53 % 0.0 in
14:12 20.4 °F 11.1 °F 1015.1 in SW 11.3 mph 11.3 mph 55 % 0.0 in
14:17 20.2 °F 11.4 °F 1015.1 in West 4.8 mph 16.1 mph 57 % 0.0 in
14:22 20.6 °F 11.8 °F 1015.1 in WSW 12.9 mph 16.1 mph 57 % 0.0 in
14:27 20.7 °F 10.8 °F 1015.1 in WSW 6.4 mph 19.3 mph 53 % 0.0 in
14:32 20.8 °F 10.9 °F 1015.1 in WSW 4.8 mph 19.3 mph 53 % 0.0 in
14:37 20.9 °F 11.2 °F 1014.8 in WSW 14.5 mph 19.3 mph 54 % 0.0 in
14:42 21.1 °F 11.4 °F 1014.8 in SW 1.6 mph 19.3 mph 54 % 0.0 in
14:47 21.2 °F 11.2 °F 1014.8 in West 6.4 mph 19.3 mph 53 % 0.0 in
14:52 21.4 °F 12.3 °F 1014.4 in SW 8.0 mph 19.3 mph 56 % 0.0 in
14:57 21.5 °F 10.9 °F 1014.4 in West 4.8 mph 19.3 mph 51 % 0.0 in
15:02 21.6 °F 11.6 °F 1014.4 in SW 22.5 mph 22.5 mph 53 % 0.0 in
15:07 21.8 °F 11.5 °F 1014.4 in South 3.2 mph 22.5 mph 52 % 0.0 in
15:12 21.3 °F 11.0 °F 1014.4 in SW 6.4 mph 22.5 mph 52 % 0.0 in
15:17 21.2 °F 11.5 °F 1014.4 in West 3.2 mph 22.5 mph 54 % 0.0 in
15:22 21.2 °F 11.0 °F 1014.4 in WSW 6.4 mph 20.9 mph 52 % 0.0 in
15:27 21.3 °F 11.0 °F 1014.4 in SW 20.9 mph 20.9 mph 52 % 0.0 in
15:32 21.2 °F 10.7 °F 1014.4 in West 11.3 mph 24.1 mph 51 % 0.0 in
15:42 21.8 °F 10.0 °F 1014.1 in WSW 16.1 mph 24.1 mph 47 % 0.0 in
15:47 22.1 °F 9.9 °F 1014.1 in West 8.0 mph 20.9 mph 46 % 0.0 in
15:52 22.1 °F 10.3 °F 1014.1 in SW 16.1 mph 22.5 mph 47 % 0.0 in
15:57 22.1 °F 10.9 °F 1014.1 in West 12.9 mph 22.5 mph 49 % 0.0 in
16:02 21.9 °F 10.4 °F 1014.1 in WSW 9.7 mph 24.1 mph 48 % 0.0 in
16:07 21.6 °F 11.0 °F 1014.1 in SW 11.3 mph 24.1 mph 51 % 0.0 in
16:12 21.5 °F 11.2 °F 1013.8 in South 8.0 mph 24.1 mph 52 % 0.0 in
16:17 21.6 °F 10.7 °F 1013.8 in SW 8.0 mph 19.3 mph 50 % 0.0 in
16:22 21.9 °F 11.0 °F 1013.8 in SW 6.4 mph 19.3 mph 50 % 0.0 in
16:27 22.0 °F 11.1 °F 1013.8 in WSW 8.0 mph 17.7 mph 50 % 0.0 in
16:32 21.8 °F 10.9 °F 1013.4 in West 6.4 mph 17.7 mph 50 % 0.0 in
16:37 21.6 °F 10.4 °F 1013.4 in SW 11.3 mph 20.9 mph 49 % 0.0 in
16:42 21.5 °F 11.2 °F 1013.4 in WSW 1.6 mph 20.9 mph 52 % 0.0 in
16:47 21.7 °F 10.5 °F 1013.4 in WSW 4.8 mph 20.9 mph 49 % 0.0 in
16:52 21.9 °F 11.3 °F 1013.1 in SSW 3.2 mph 14.5 mph 51 % 0.0 in
16:57 22.1 °F 10.6 °F 1013.1 in SW 11.3 mph 20.9 mph 48 % 0.0 in
17:02 22.1 °F 10.3 °F 1013.1 in SSW 6.4 mph 20.9 mph 47 % 0.0 in
17:12 22.3 °F 11.1 °F 1013.1 in SW 11.3 mph 22.5 mph 49 % 0.0 in
17:17 22.2 °F 10.4 °F 1012.8 in WSW 9.7 mph 22.5 mph 47 % 0.0 in
17:22 22.3 °F 10.4 °F 1012.8 in SW 16.1 mph 22.5 mph 47 % 0.0 in
17:27 22.1 °F 10.3 °F 1012.8 in SW 8.0 mph 20.9 mph 47 % 0.0 in
17:32 22.0 °F 10.5 °F 1012.8 in SSW 9.7 mph 22.5 mph 48 % 0.0 in
17:37 22.0 °F 9.8 °F 1012.8 in WSW 11.3 mph 22.5 mph 46 % 0.0 in
17:42 22.1 °F 10.3 °F 1012.8 in WSW 11.3 mph 19.3 mph 47 % 0.0 in
17:47 22.2 °F 10.4 °F 1012.8 in West 16.1 mph 20.9 mph 47 % 0.0 in
17:52 22.1 °F 10.9 °F 1012.8 in SW 4.8 mph 20.9 mph 49 % 0.0 in
17:57 21.9 °F 10.4 °F 1012.4 in West 9.7 mph 20.9 mph 48 % 0.0 in
18:02 21.9 °F 10.7 °F 1012.4 in SW 3.2 mph 19.3 mph 49 % 0.0 in
18:07 21.6 °F 10.1 °F 1012.4 in SW 4.8 mph 16.1 mph 48 % 0.0 in
18:12 21.7 °F 10.5 °F 1012.1 in SW 6.4 mph 16.1 mph 49 % 0.0 in
18:17 21.7 °F 10.8 °F 1012.1 in SW 12.9 mph 16.1 mph 50 % 0.0 in
18:22 21.6 °F 10.7 °F 1012.1 in SW 11.3 mph 22.5 mph 50 % 0.0 in
18:32 21.4 °F 11.1 °F 1012.1 in SW 8.0 mph 22.5 mph 52 % 0.0 in
18:42 21.7 °F 11.4 °F 1011.7 in SSE 12.9 mph 19.3 mph 52 % 0.0 in
18:47 21.6 °F 10.7 °F 1011.7 in SW 17.7 mph 19.3 mph 50 % 0.0 in
18:52 21.2 °F 10.7 °F 1011.7 in WSW 11.3 mph 22.5 mph 51 % 0.0 in
18:57 21.0 °F 10.5 °F 1011.4 in WSW 9.7 mph 22.5 mph 51 % 0.0 in
19:02 20.9 °F 11.2 °F 1011.7 in SSE 4.8 mph 22.5 mph 54 % 0.0 in
19:07 21.2 °F 12.1 °F 1011.4 in SW 9.7 mph 17.7 mph 56 % 0.0 in
19:12 21.0 °F 11.3 °F 1011.4 in West 9.7 mph 17.7 mph 54 % 0.0 in
19:17 20.9 °F 11.0 °F 1011.4 in WSW 8.0 mph 20.9 mph 53 % 0.0 in
19:22 20.8 °F 11.2 °F 1011.4 in SSW 4.8 mph 20.9 mph 54 % 0.0 in
19:27 20.7 °F 11.3 °F 1011.4 in SW 3.2 mph 17.7 mph 55 % 0.0 in
19:32 20.6 °F 12.0 °F 1011.1 in SW 4.8 mph 12.9 mph 58 % 0.0 in
19:37 20.4 °F 12.1 °F 1011.1 in SSW 8.0 mph 12.9 mph 59 % 0.0 in
19:42 20.4 °F 12.4 °F 1011.1 in SW 6.4 mph 12.9 mph 60 % 0.0 in
19:47 20.3 °F 12.3 °F 1011.1 in SW 6.4 mph 12.9 mph 60 % 0.0 in
19:52 20.2 °F 12.4 °F 1011.1 in WSW 8.0 mph 12.9 mph 61 % 0.0 in
19:57 20.1 °F 12.3 °F 1011.1 in SW 4.8 mph 12.9 mph 61 % 0.0 in
20:02 19.9 °F 12.9 °F 1011.1 in SW 4.8 mph 11.3 mph 64 % 0.0 in
20:07 19.8 °F 12.6 °F 1010.7 in SSW 3.2 mph 11.3 mph 63 % 0.0 in
20:12 19.8 °F 12.6 °F 1010.7 in SW 3.2 mph 11.3 mph 63 % 0.0 in
20:17 20.1 °F 12.6 °F 1010.7 in SSW 9.7 mph 11.3 mph 62 % 0.0 in
20:22 20.2 °F 12.4 °F 1010.7 in SW 6.4 mph 11.3 mph 61 % 0.0 in
20:27 20.1 °F 12.8 °F 1010.7 in SW 9.7 mph 11.3 mph 63 % 0.0 in
20:32 19.8 °F 12.6 °F 1010.4 in SSW 6.4 mph 11.3 mph 63 % 0.0 in
20:37 19.7 °F 12.5 °F 1010.4 in SSW 9.7 mph 11.3 mph 63 % 0.0 in
20:42 19.6 °F 12.6 °F 1010.4 in SW 8.0 mph 11.3 mph 64 % 0.0 in
20:52 19.1 °F 12.4 °F 1010.4 in SW 6.4 mph 11.3 mph 65 % 0.0 in
20:57 19.0 °F 12.3 °F 1010.4 in SW 8.0 mph 8.0 mph 65 % 0.0 in
21:02 18.9 °F 12.2 °F 1010.4 in SW 1.6 mph 11.3 mph 65 % 0.0 in
21:07 18.8 °F 12.1 °F 1010.4 in WSW 6.4 mph 11.3 mph 65 % 0.0 in
21:12 18.7 °F 12.0 °F 1010.0 in WSW 6.4 mph 11.3 mph 65 % 0.0 in
21:17 18.6 °F 12.4 °F 1010.0 in SW 3.2 mph 9.7 mph 67 % 0.0 in
21:22 18.2 °F 12.6 °F 1010.0 in SSW 4.8 mph 9.7 mph 70 % 0.0 in
21:32 17.5 °F 12.4 °F 1010.0 in SSW 6.4 mph 6.4 mph 72 % 0.0 in
21:37 17.5 °F 12.4 °F 1010.0 in SW 3.2 mph 8.0 mph 72 % 0.0 in
21:42 17.4 °F 12.1 °F 1010.0 in SSW 3.2 mph 8.0 mph 71 % 0.0 in
21:47 17.3 °F 12.2 °F 1010.0 in SSW 1.6 mph 8.0 mph 72 % 0.0 in
21:52 17.1 °F 12.2 °F 1010.0 in SW 3.2 mph 8.0 mph 73 % 0.0 in
21:57 17.1 °F 12.0 °F 1010.0 in WSW 4.8 mph 8.0 mph 72 % 0.0 in
22:02 17.1 °F 11.8 °F 1010.0 in SSW 1.6 mph 9.7 mph 71 % 0.0 in
22:12 16.7 °F 11.8 °F 1009.7 in SSW 1.6 mph 9.7 mph 73 % 0.0 in
22:17 16.4 °F 12.0 °F 1009.7 in SSW 3.2 mph 6.4 mph 75 % 0.0 in
22:22 16.1 °F 11.9 °F 1009.7 in SW 3.2 mph 4.8 mph 76 % 0.0 in
22:27 16.0 °F 12.0 °F 1009.7 in SSW 3.2 mph 4.8 mph 77 % 0.0 in
22:32 15.9 °F 11.9 °F 1009.7 in SSW 1.6 mph 4.8 mph 77 % 0.0 in
22:37 15.8 °F 11.8 °F 1010.0 in SW 1.6 mph 4.8 mph 77 % 0.0 in
22:42 15.8 °F 11.8 °F 1009.7 in SW 3.2 mph 3.2 mph 77 % 0.0 in
22:52 15.8 °F 11.6 °F 1010.0 in SSW 3.2 mph 6.4 mph 76 % 0.0 in
22:57 15.6 °F 11.6 °F 1009.7 in Calm   6.4 mph 77 % 0.0 in
23:02 15.4 °F 11.4 °F 1009.7 in Calm   4.8 mph 77 % 0.0 in
23:12 15.1 °F 11.5 °F 1009.4 in Calm   3.2 mph 79 % 0.0 in
23:17 14.9 °F 11.3 °F 1009.4 in Calm   3.2 mph 79 % 0.0 in
23:22 14.7 °F 11.3 °F 1009.4 in Calm   1.6 mph 80 % 0.0 in
23:27 14.5 °F 11.3 °F 1009.4 in SSW 1.6 mph 1.6 mph 81 % 0.0 in
23:32 14.4 °F 11.4 °F 1009.0 in SSW 3.2 mph 3.2 mph 82 % 0.0 in
23:37 14.4 °F 11.4 °F 1009.0 in SSW 3.2 mph 6.4 mph 82 % 0.0 in
23:42 14.3 °F 11.3 °F 1009.0 in Calm   6.4 mph 82 % 0.0 in
23:47 14.3 °F 11.3 °F 1008.7 in SW 3.2 mph 6.4 mph 82 % 0.0 in
23:52 14.3 °F 11.3 °F 1008.7 in SW 3.2 mph 6.4 mph 82 % 0.0 in
23:57 14.2 °F 11.4 °F 1008.7 in SSW 1.6 mph 6.4 mph 83 % 0.0 in
Meteo18
Compliments of Weather Underground - 4 mb

Script developed by  Jim McMurry - jmcmurry@mwt.net Adapted for the template by  Wim van der Kuil - Leuven-Template.eu

You find our weather info also at:

European Weather Network

Weather Underground

Equipment we use:

Weather-station
Davis Vue

Weather-program
Meteobridge

Weather-server
Raspberry PI 2 B+

Provider
1 and 1

Davis Vue

Meteobridge

Raspberry PI 2 B+

1 and 1